createdAt,value
2023-10-23T00:01:34.644Z,98377.50
2023-10-23T00:04:01.870Z,98386.00
2023-10-23T00:06:28.954Z,98388.45
2023-10-23T00:08:55.774Z,98391.82
2023-10-23T00:11:24.863Z,98392.83
2023-10-23T00:13:51.955Z,98394.24
2023-10-23T00:16:19.838Z,98395.54
2023-10-23T00:18:47.307Z,98390.48
2023-10-23T00:21:14.511Z,98387.70
2023-10-23T00:23:41.424Z,98387.35
2023-10-23T00:26:10.434Z,98385.02
2023-10-23T00:28:37.711Z,98389.77
2023-10-23T00:31:04.573Z,98392.85
2023-10-23T00:33:31.617Z,98396.55
2023-10-23T00:35:58.716Z,98399.34
2023-10-23T00:38:25.616Z,98398.67
2023-10-23T00:40:52.472Z,98399.59
2023-10-23T00:43:21.953Z,98400.48
2023-10-23T00:45:52.525Z,98404.30
2023-10-23T00:48:21.685Z,98407.58
2023-10-23T00:50:50.165Z,98409.55
2023-10-23T00:53:19.709Z,98413.13
2023-10-23T00:55:48.012Z,98412.23
2023-10-23T00:58:16.207Z,98417.33
2023-10-23T01:00:45.578Z,98417.23
2023-10-23T01:03:13.461Z,98411.83
2023-10-23T01:05:40.929Z,98419.13
2023-10-23T01:08:08.122Z,98419.50
2023-10-23T01:10:35.354Z,98416.27
2023-10-23T01:13:08.176Z,98415.77
2023-10-23T01:15:36.134Z,98417.48
2023-10-23T01:18:04.281Z,98416.84
2023-10-23T01:20:32.211Z,98413.58
2023-10-23T01:23:00.910Z,98414.91
2023-10-23T01:25:29.357Z,98414.81
2023-10-23T01:27:56.725Z,98419.58
2023-10-23T01:30:23.625Z,98420.88
2023-10-23T01:32:50.645Z,98423.44
2023-10-23T01:35:17.817Z,98423.61
2023-10-23T01:37:46.341Z,98427.23
2023-10-23T01:40:13.593Z,98426.55
2023-10-23T01:42:41.746Z,98428.40
2023-10-23T01:45:09.685Z,98432.32
2023-10-23T01:47:36.977Z,98432.27
2023-10-23T01:50:04.145Z,98436.14
2023-10-23T01:52:30.997Z,98433.57
2023-10-23T01:54:59.941Z,98433.52
2023-10-23T01:57:28.633Z,98437.11
2023-10-23T01:59:56.999Z,98437.43
2023-10-23T02:02:24.117Z,98437.59
2023-10-23T02:04:50.934Z,98442.40
2023-10-23T02:07:17.792Z,98442.11
2023-10-23T02:09:45.629Z,98444.63
2023-10-23T02:12:12.986Z,98443.10
2023-10-23T02:14:40.071Z,98440.41
2023-10-23T02:17:07.300Z,98435.08
2023-10-23T02:19:36.228Z,98435.07
2023-10-23T02:22:03.271Z,98436.77
2023-10-23T02:24:30.214Z,98437.80
2023-10-23T02:26:57.768Z,98440.50
2023-10-23T02:29:24.712Z,98434.27
2023-10-23T02:31:51.662Z,98435.90
2023-10-23T02:34:18.819Z,98433.79
2023-10-23T02:36:45.798Z,98438.66
2023-10-23T02:39:12.934Z,98436.10
2023-10-23T02:41:39.853Z,98443.42
2023-10-23T02:44:06.833Z,98442.39
2023-10-23T02:46:39.902Z,98445.08
2023-10-23T02:49:06.974Z,98446.71
2023-10-23T02:51:33.965Z,98453.77
2023-10-23T02:54:01.040Z,98453.23
2023-10-23T02:56:27.890Z,98456.59
2023-10-23T02:58:54.949Z,98457.32
2023-10-23T03:01:25.136Z,98459.02
2023-10-23T03:03:53.133Z,98459.91
2023-10-23T03:06:20.238Z,98459.19
2023-10-23T03:08:47.200Z,98456.25
2023-10-23T03:11:20.726Z,98458.50
2023-10-23T03:14:10.645Z,98459.79
2023-10-23T03:16:38.607Z,98461.27
2023-10-23T03:19:05.713Z,98463.29
2023-10-23T03:21:32.662Z,98463.25
2023-10-23T03:23:59.666Z,98461.92
2023-10-23T03:26:26.739Z,98454.95
2023-10-23T03:28:53.706Z,98452.64
2023-10-23T03:31:20.642Z,98452.84
2023-10-23T03:33:47.527Z,98453.05
2023-10-23T03:36:14.445Z,98457.30
2023-10-23T03:38:41.472Z,98457.45
2023-10-23T03:41:08.328Z,98453.39
2023-10-23T03:43:35.276Z,98457.27
2023-10-23T03:46:04.296Z,98454.80
2023-10-23T03:48:31.553Z,98456.92
2023-10-23T03:51:01.912Z,98458.17
2023-10-23T03:53:29.168Z,98453.71
2023-10-23T03:55:56.216Z,98455.52
2023-10-23T03:58:23.078Z,98456.36
2023-10-23T04:00:54.297Z,98456.34
2023-10-23T04:03:21.533Z,98458.64
2023-10-23T04:05:48.603Z,98459.90
2023-10-23T04:08:15.509Z,98459.65
2023-10-23T04:10:46.753Z,98458.67
2023-10-23T04:13:14.789Z,98456.39
2023-10-23T04:15:42.300Z,98453.48
2023-10-23T04:18:09.227Z,98452.21
2023-10-23T04:20:36.067Z,98452.25
2023-10-23T04:23:03.145Z,98453.90
2023-10-23T04:25:30.076Z,98458.68
2023-10-23T04:27:57.052Z,98459.52
2023-10-23T04:30:23.945Z,98464.15
2023-10-23T04:32:50.871Z,98465.45
2023-10-23T04:35:17.738Z,98472.41
2023-10-23T04:37:44.789Z,98479.42
2023-10-23T04:40:12.232Z,98478.67
2023-10-23T04:42:39.161Z,98481.70
2023-10-23T04:45:06.791Z,98483.17
2023-10-23T04:47:33.637Z,98485.05
2023-10-23T04:50:00.474Z,98482.60
2023-10-23T04:52:27.281Z,98485.20
2023-10-23T04:54:54.607Z,98484.73
2023-10-23T04:57:21.487Z,98486.85
2023-10-23T04:59:48.447Z,98493.50
2023-10-23T05:02:15.307Z,98494.93
2023-10-23T05:04:42.185Z,98497.13
2023-10-23T05:07:09.241Z,98497.27
2023-10-23T05:09:36.114Z,98499.56
2023-10-23T05:12:02.985Z,98506.23
2023-10-23T05:14:29.856Z,98511.84
2023-10-23T05:16:56.730Z,98517.67
2023-10-23T05:19:23.625Z,98517.66
2023-10-23T05:21:50.526Z,98522.64
2023-10-23T05:24:17.479Z,98527.88
2023-10-23T05:26:44.533Z,98530.88
2023-10-23T05:29:11.354Z,98529.27
2023-10-23T05:31:38.181Z,98529.13
2023-10-23T05:34:08.134Z,98535.16
2023-10-23T05:36:35.146Z,98534.59
2023-10-23T05:39:02.038Z,98538.69
2023-10-23T05:41:28.908Z,98549.01
2023-10-23T05:43:55.792Z,98552.15
2023-10-23T05:46:24.053Z,98552.50
2023-10-23T05:48:50.971Z,98552.71
2023-10-23T05:51:17.872Z,98552.79
2023-10-23T05:53:44.785Z,98556.71
2023-10-23T05:56:11.630Z,98557.89
2023-10-23T05:58:38.553Z,98558.20
2023-10-23T06:01:07.074Z,98563.52
2023-10-23T06:03:35.352Z,98565.52
2023-10-23T06:06:02.729Z,98569.27
2023-10-23T06:08:29.580Z,98573.45
2023-10-23T06:10:56.502Z,98578.60
2023-10-23T06:13:23.553Z,98574.16
2023-10-23T06:15:50.669Z,98572.75
2023-10-23T06:18:17.618Z,98576.63
2023-10-23T06:20:45.891Z,98578.27
2023-10-23T06:23:12.765Z,98581.73
2023-10-23T06:25:41.021Z,98578.55
2023-10-23T06:28:08.217Z,98581.15
2023-10-23T06:30:37.558Z,98577.06
2023-10-23T06:33:04.707Z,98573.17
2023-10-23T06:35:31.635Z,98573.54
2023-10-23T06:37:58.586Z,98579.39
2023-10-23T06:40:25.533Z,98581.16
2023-10-23T06:42:52.401Z,98585.73
2023-10-23T06:45:19.362Z,98586.83
2023-10-23T06:47:50.632Z,98586.61
2023-10-23T06:50:18.657Z,98588.23
2023-10-23T06:52:46.113Z,98589.15
2023-10-23T06:55:13.814Z,98590.15
2023-10-23T06:57:40.727Z,98593.23
2023-10-23T07:00:08.240Z,98596.50
2023-10-23T07:02:35.222Z,98600.27
2023-10-23T07:05:02.821Z,98601.28
2023-10-23T07:07:30.701Z,98604.33
2023-10-23T07:10:02.051Z,98608.80
2023-10-23T07:12:28.980Z,98602.69
2023-10-23T07:14:55.965Z,98592.99
2023-10-23T07:17:22.966Z,98588.07
2023-10-23T07:19:50.129Z,98588.57
2023-10-23T07:22:17.515Z,98595.15
2023-10-23T07:24:44.422Z,98594.27
2023-10-23T07:27:16.406Z,98595.80
2023-10-23T07:29:45.139Z,98594.18
2023-10-23T07:32:12.384Z,98588.90
2023-10-23T07:34:39.199Z,98590.82
2023-10-23T07:37:06.288Z,98593.52
2023-10-23T07:39:35.596Z,98591.09
2023-10-23T07:42:03.188Z,98594.48
2023-10-23T07:44:30.104Z,98599.79
2023-10-23T07:46:57.157Z,98599.77
2023-10-23T07:49:24.740Z,98595.55
2023-10-23T07:51:54.011Z,98600.78
2023-10-23T07:54:21.738Z,98603.54
2023-10-23T07:56:48.758Z,98603.54
2023-10-23T07:59:15.688Z,98599.63
2023-10-23T08:01:42.788Z,98597.90
2023-10-23T08:04:10.152Z,98596.45
2023-10-23T08:06:37.334Z,98598.60
2023-10-23T08:09:05.121Z,98607.38
2023-10-23T08:11:31.998Z,98610.02
2023-10-23T08:13:59.748Z,98611.13
2023-10-23T08:16:26.918Z,98608.94
2023-10-23T08:18:54.056Z,98610.55
2023-10-23T08:21:22.995Z,98615.48
2023-10-23T08:23:58.097Z,98613.80
2023-10-23T08:26:25.039Z,98617.10
2023-10-23T08:29:01.744Z,98615.73
2023-10-23T08:31:39.419Z,98612.69
2023-10-23T08:34:08.979Z,98614.11
2023-10-23T08:36:36.452Z,98610.98
2023-10-23T08:39:04.557Z,98605.63
2023-10-23T08:41:32.761Z,98608.71
2023-10-23T08:44:00.148Z,98608.99
2023-10-23T08:46:31.089Z,98607.13
2023-10-23T08:48:58.538Z,98611.32
2023-10-23T08:51:26.554Z,98607.69
2023-10-23T08:54:11.138Z,98608.45
2023-10-23T08:56:42.216Z,98612.31
2023-10-23T08:59:11.587Z,98617.04
2023-10-23T09:01:39.313Z,98612.09
2023-10-23T09:04:08.143Z,98610.98
2023-10-23T09:06:37.328Z,98613.41
2023-10-23T09:09:06.688Z,98616.70
2023-10-23T09:11:45.651Z,98609.80
2023-10-23T09:14:25.017Z,98619.34
2023-10-23T09:16:53.659Z,98622.27
2023-10-23T09:19:40.215Z,98623.92
2023-10-23T09:22:09.310Z,98624.79
2023-10-23T09:24:37.179Z,98624.48
2023-10-23T09:27:04.661Z,98628.43
2023-10-23T09:29:32.105Z,98626.26
2023-10-23T09:32:01.016Z,98628.16
2023-10-23T09:34:30.329Z,98632.48
2023-10-23T09:36:57.515Z,98627.67
2023-10-23T09:39:24.870Z,98626.56
2023-10-23T09:41:52.582Z,98623.10
2023-10-23T09:44:19.501Z,98619.38
2023-10-23T09:46:49.424Z,98615.38
2023-10-23T09:49:17.947Z,98608.66
2023-10-23T09:51:50.110Z,98611.83
2023-10-23T09:54:21.102Z,98614.88
2023-10-23T09:56:55.771Z,98611.66
2023-10-23T09:59:41.986Z,98610.32
2023-10-23T10:02:11.068Z,98610.75
2023-10-23T10:04:52.718Z,98601.32
2023-10-23T10:07:27.525Z,98597.20
2023-10-23T10:09:55.879Z,98591.86
2023-10-23T10:12:26.022Z,98592.65
2023-10-23T10:14:55.196Z,98592.61
2023-10-23T10:17:22.380Z,98589.90
2023-10-23T10:19:50.948Z,98586.48
2023-10-23T10:22:26.139Z,98581.20
2023-10-23T10:24:53.828Z,98575.18
2023-10-23T10:27:21.787Z,98572.52
2023-10-23T10:29:48.804Z,98566.94
2023-10-23T10:32:16.000Z,98564.20
2023-10-23T10:34:55.906Z,98563.83
2023-10-23T10:37:29.163Z,98551.91
2023-10-23T10:39:56.239Z,98550.24
2023-10-23T10:42:26.914Z,98548.17
2023-10-23T10:44:55.179Z,98547.59
2023-10-23T10:47:35.384Z,98538.92
2023-10-23T10:50:02.270Z,98536.65
2023-10-23T10:52:31.383Z,98538.85
2023-10-23T10:55:01.935Z,98541.77
2023-10-23T10:57:29.145Z,98536.41
2023-10-23T10:59:57.212Z,98535.35
2023-10-23T11:02:24.542Z,98535.61
2023-10-23T11:04:51.862Z,98537.34
2023-10-23T11:07:24.317Z,98533.55
2023-10-23T11:09:51.789Z,98533.23
2023-10-23T11:12:20.340Z,98531.48
2023-10-23T11:14:48.515Z,98531.83
2023-10-23T11:17:16.085Z,98527.55
2023-10-23T11:19:44.530Z,98527.18
2023-10-23T11:22:23.129Z,98522.52
2023-10-23T11:24:50.366Z,98519.06
2023-10-23T11:27:17.349Z,98520.48
2023-10-23T11:29:47.045Z,98522.09
2023-10-23T11:32:15.767Z,98521.90
2023-10-23T11:34:43.805Z,98521.63
2023-10-23T11:37:12.523Z,98529.05
2023-10-23T11:39:43.584Z,98527.90
2023-10-23T11:42:12.056Z,98524.38
2023-10-23T11:44:41.644Z,98522.32
2023-10-23T11:47:09.335Z,98524.29
2023-10-23T11:49:36.550Z,98529.89
2023-10-23T11:52:03.961Z,98526.28
2023-10-23T11:54:31.268Z,98524.96
2023-10-23T11:57:00.393Z,98526.80
2023-10-23T11:59:27.868Z,98525.05
2023-10-23T12:01:57.898Z,98527.01
2023-10-23T12:04:25.221Z,98530.48
2023-10-23T12:06:52.478Z,98528.08
2023-10-23T12:09:19.669Z,98526.31
2023-10-23T12:11:46.631Z,98517.61
2023-10-23T12:14:13.618Z,98519.75
2023-10-23T12:16:40.850Z,98522.10
2023-10-23T12:19:10.920Z,98514.17
2023-10-23T12:21:38.565Z,98515.54
2023-10-23T12:24:07.878Z,98510.99
2023-10-23T12:26:35.454Z,98505.80
2023-10-23T12:29:06.661Z,98499.16
2023-10-23T12:32:01.733Z,98501.38
2023-10-23T12:34:21.228Z,98498.95
2023-10-23T12:36:48.257Z,98500.06
2023-10-23T12:39:15.294Z,98497.69
2023-10-23T12:41:42.146Z,98494.80
2023-10-23T12:44:08.950Z,98491.30
2023-10-23T12:46:35.915Z,98486.13
2023-10-23T12:49:03.246Z,98485.23
2023-10-23T12:51:30.224Z,98481.75
2023-10-23T12:53:57.152Z,98481.20
2023-10-23T12:56:24.065Z,98475.48
2023-10-23T12:58:50.908Z,98474.10
2023-10-23T13:01:18.386Z,98480.02
2023-10-23T13:03:45.296Z,98473.79
2023-10-23T13:06:12.417Z,98468.81
2023-10-23T13:08:39.326Z,98469.52
2023-10-23T13:11:06.157Z,98467.00
2023-10-23T13:13:33.038Z,98466.23
2023-10-23T13:16:00.019Z,98462.86
2023-10-23T13:18:26.924Z,98459.67
2023-10-23T13:21:30.768Z,98454.55
2023-10-23T13:23:42.234Z,98453.44
2023-10-23T13:26:13.870Z,98453.86
2023-10-23T13:28:41.555Z,98452.36
2023-10-23T13:31:09.162Z,98452.53
2023-10-23T13:33:36.244Z,98458.46
2023-10-23T13:36:03.529Z,98454.13
2023-10-23T13:38:31.033Z,98454.63
2023-10-23T13:40:58.027Z,98457.48
2023-10-23T13:43:26.577Z,98459.23
2023-10-23T13:45:53.737Z,98451.20
2023-10-23T13:48:20.751Z,98446.23
2023-10-23T13:50:51.260Z,98444.52
2023-10-23T13:53:19.148Z,98444.05
2023-10-23T13:55:46.758Z,98443.25
2023-10-23T13:58:13.804Z,98439.61
2023-10-23T14:00:41.248Z,98437.00
2023-10-23T14:03:10.092Z,98436.77
2023-10-23T14:05:38.608Z,98437.16
2023-10-23T14:08:05.764Z,98432.35
2023-10-23T14:10:33.344Z,98437.35
2023-10-23T14:13:00.344Z,98430.04
2023-10-23T14:15:28.032Z,98434.02
2023-10-23T14:17:55.102Z,98435.59
2023-10-23T14:20:22.306Z,98437.52
2023-10-23T14:22:49.206Z,98437.36
2023-10-23T14:25:16.233Z,98440.98
2023-10-23T14:27:43.235Z,98439.92
2023-10-23T14:30:10.431Z,98436.41
2023-10-23T14:32:37.901Z,98434.96
2023-10-23T14:35:05.211Z,98444.92
2023-10-23T14:37:32.554Z,98445.62
2023-10-23T14:39:59.725Z,98446.15
2023-10-23T14:42:27.130Z,98449.21
2023-10-23T14:44:54.112Z,98448.98
2023-10-23T14:47:21.045Z,98449.90
2023-10-23T14:49:47.957Z,98446.44
2023-10-23T14:52:14.948Z,98445.14
2023-10-23T14:54:42.838Z,98449.73
2023-10-23T14:57:09.892Z,98449.92
2023-10-23T14:59:36.805Z,98455.66
2023-10-23T15:02:03.872Z,98454.93
2023-10-23T15:04:32.674Z,98453.96
2023-10-23T15:07:00.868Z,98448.80
2023-10-23T15:09:27.810Z,98454.25
2023-10-23T15:11:54.654Z,98458.39
2023-10-23T15:14:21.557Z,98459.40
2023-10-23T15:16:48.536Z,98458.92
2023-10-23T15:19:15.791Z,98461.86
2023-10-23T15:21:42.913Z,98461.81
2023-10-23T15:24:11.707Z,98460.55
2023-10-23T15:26:39.157Z,98460.10
2023-10-23T15:29:06.088Z,98460.60
2023-10-23T15:31:33.140Z,98467.98
2023-10-23T15:34:00.204Z,98467.79
2023-10-23T15:36:27.111Z,98465.47
2023-10-23T15:38:54.134Z,98461.23
2023-10-23T15:41:21.013Z,98464.38
2023-10-23T15:43:57.187Z,98462.36
2023-10-23T15:46:24.285Z,98459.02
2023-10-23T15:48:52.322Z,98462.11
2023-10-23T15:51:19.218Z,98466.78
2023-10-23T15:53:46.088Z,98462.80
2023-10-23T15:56:12.955Z,98467.31
2023-10-23T15:58:39.926Z,98469.42
2023-10-23T16:01:08.257Z,98474.08
2023-10-23T16:03:36.954Z,98469.38
2023-10-23T16:06:07.653Z,98469.64
2023-10-23T16:08:36.649Z,98465.62
2023-10-23T16:11:04.345Z,98464.98
2023-10-23T16:13:38.380Z,98460.84
2023-10-23T16:16:14.376Z,98453.29
2023-10-23T16:18:44.522Z,98454.09
2023-10-23T16:21:14.264Z,98455.69
2023-10-23T16:23:41.479Z,98457.33
2023-10-23T16:26:08.552Z,98456.70
2023-10-23T16:28:36.284Z,98457.05
2023-10-23T16:31:03.367Z,98455.22
2023-10-23T16:33:30.371Z,98462.03
2023-10-23T16:35:57.239Z,98457.70
2023-10-23T16:38:24.069Z,98456.77
2023-10-23T16:40:51.181Z,98452.93
2023-10-23T16:43:19.199Z,98448.97
2023-10-23T16:45:46.345Z,98452.86
2023-10-23T16:48:13.214Z,98449.42
2023-10-23T16:50:40.072Z,98449.61
2023-10-23T16:53:06.982Z,98447.35
2023-10-23T16:55:33.986Z,98445.05
2023-10-23T16:58:01.009Z,98446.02
2023-10-23T17:00:28.496Z,98452.02
2023-10-23T17:02:55.978Z,98452.48
2023-10-23T17:05:23.054Z,98453.21
2023-10-23T17:07:49.881Z,98453.39
2023-10-23T17:10:18.244Z,98451.05
2023-10-23T17:12:45.196Z,98451.30
2023-10-23T17:15:12.090Z,98448.33
2023-10-23T17:17:39.322Z,98448.69
2023-10-23T17:20:07.482Z,98448.06
2023-10-23T17:22:36.571Z,98447.05
2023-10-23T17:25:03.934Z,98452.59
2023-10-23T17:27:30.836Z,98447.60
2023-10-23T17:29:57.784Z,98453.84
2023-10-23T17:32:24.663Z,98453.80
2023-10-23T17:34:51.541Z,98455.34
2023-10-23T17:37:18.446Z,98457.80
2023-10-23T17:39:45.532Z,98455.38
2023-10-23T17:42:12.403Z,98456.30
2023-10-23T17:44:39.245Z,98459.02
2023-10-23T17:47:06.376Z,98455.90
2023-10-23T17:49:33.362Z,98459.00
2023-10-23T17:52:00.356Z,98457.51
2023-10-23T17:54:27.212Z,98461.33
2023-10-23T17:56:54.064Z,98460.80
2023-10-23T17:59:21.139Z,98458.83
2023-10-23T18:01:48.194Z,98458.85
2023-10-23T18:04:15.093Z,98461.80
2023-10-23T18:06:41.996Z,98458.27
2023-10-23T18:09:10.627Z,98459.56
2023-10-23T18:11:39.635Z,98461.45
2023-10-23T18:14:08.966Z,98458.23
2023-10-23T18:16:37.103Z,98457.65
2023-10-23T18:19:04.870Z,98456.61
2023-10-23T18:21:31.817Z,98453.79
2023-10-23T18:23:58.743Z,98452.17
2023-10-23T18:26:26.087Z,98448.23
2023-10-23T18:28:53.375Z,98452.64
2023-10-23T18:31:21.131Z,98449.73
2023-10-23T18:33:48.096Z,98447.95
2023-10-23T18:36:17.356Z,98443.31
2023-10-23T18:38:46.189Z,98441.66
2023-10-23T18:41:17.674Z,98438.23
2023-10-23T18:43:46.795Z,98437.11
2023-10-23T18:46:14.647Z,98438.72
2023-10-23T18:48:42.219Z,98432.48
2023-10-23T18:51:12.883Z,98433.02
2023-10-23T18:53:42.228Z,98432.45
2023-10-23T18:56:09.229Z,98429.36
2023-10-23T18:58:36.615Z,98431.84
2023-10-23T19:01:03.848Z,98430.27
2023-10-23T19:03:31.715Z,98435.77
2023-10-23T19:05:58.883Z,98434.35
2023-10-23T19:08:29.386Z,98433.70
2023-10-23T19:10:56.523Z,98430.39
2023-10-23T19:13:23.537Z,98431.69
2023-10-23T19:15:59.560Z,98435.02
2023-10-23T19:18:30.320Z,98435.16
2023-10-23T19:21:00.706Z,98439.88
2023-10-23T19:23:27.840Z,98435.97
2023-10-23T19:25:54.820Z,98433.90
2023-10-23T19:28:22.937Z,98430.36
2023-10-23T19:30:50.008Z,98431.29
2023-10-23T19:33:17.331Z,98427.27
2023-10-23T19:35:45.044Z,98424.85
2023-10-23T19:38:13.490Z,98421.15
2023-10-23T19:40:42.569Z,98419.33
2023-10-23T19:43:15.793Z,98416.11
2023-10-23T19:45:44.885Z,98409.98
2023-10-23T19:48:13.478Z,98410.22
2023-10-23T19:50:46.067Z,98412.17
2023-10-23T19:53:16.785Z,98417.38
2023-10-23T19:55:46.723Z,98422.16
2023-10-23T19:58:15.610Z,98424.05
2023-10-23T20:00:42.554Z,98423.03
2023-10-23T20:03:09.496Z,98420.16
2023-10-23T20:05:36.402Z,98417.94
2023-10-23T20:08:03.311Z,98419.98
2023-10-23T20:10:30.522Z,98420.95
2023-10-23T20:13:00.185Z,98418.96
2023-10-23T20:15:30.500Z,98420.17
2023-10-23T20:17:57.560Z,98421.46
2023-10-23T20:20:26.804Z,98426.20
2023-10-23T20:22:54.004Z,98426.77
2023-10-23T20:25:21.028Z,98426.31
2023-10-23T20:27:48.172Z,98420.65
2023-10-23T20:30:15.200Z,98420.76
2023-10-23T20:32:42.237Z,98423.61
2023-10-23T20:35:09.645Z,98425.11
2023-10-23T20:37:36.990Z,98421.85
2023-10-23T20:40:05.136Z,98423.30
2023-10-23T20:42:37.216Z,98424.73
2023-10-23T20:45:06.483Z,98416.73
2023-10-23T20:47:34.739Z,98415.71
2023-10-23T20:50:02.662Z,98418.89
2023-10-23T20:52:31.224Z,98418.58
2023-10-23T20:54:58.394Z,98422.05
2023-10-23T20:57:25.604Z,98422.58
2023-10-23T20:59:52.828Z,98419.27
2023-10-23T21:02:19.735Z,98422.11
2023-10-23T21:04:46.649Z,98418.80
2023-10-23T21:07:13.880Z,98414.52
2023-10-23T21:09:41.299Z,98414.16
2023-10-23T21:12:08.439Z,98407.11
2023-10-23T21:14:46.743Z,98405.55
2023-10-23T21:17:15.204Z,98407.73
2023-10-23T21:19:42.451Z,98409.64
2023-10-23T21:22:09.626Z,98410.97
2023-10-23T21:24:36.489Z,98413.79
2023-10-23T21:27:05.039Z,98413.65
2023-10-23T21:29:32.133Z,98413.16
2023-10-23T21:32:00.934Z,98412.29
2023-10-23T21:34:28.001Z,98407.79
2023-10-23T21:36:55.253Z,98405.89
2023-10-23T21:39:22.117Z,98400.56
2023-10-23T21:41:48.980Z,98396.77
2023-10-23T21:44:16.032Z,98394.59
2023-10-23T21:46:43.073Z,98391.27
2023-10-23T21:49:11.654Z,98390.73
2023-10-23T21:51:39.367Z,98383.04
2023-10-23T21:54:07.131Z,98378.89
2023-10-23T21:57:18.857Z,98371.50
2023-10-23T21:59:22.815Z,98358.25
2023-10-23T22:01:53.440Z,98353.58
2023-10-23T22:04:21.263Z,98348.94
2023-10-23T22:06:48.517Z,98349.25
2023-10-23T22:09:16.615Z,98352.90
2023-10-23T22:11:44.516Z,98348.20
2023-10-23T22:14:11.887Z,98332.05
2023-10-23T22:16:39.983Z,98326.87
2023-10-23T22:19:07.064Z,98325.88
2023-10-23T22:21:34.755Z,98328.19
2023-10-23T22:24:01.625Z,98331.44
2023-10-23T22:26:32.851Z,98327.66
2023-10-23T22:29:00.622Z,98319.34
2023-10-23T22:31:27.810Z,98322.41
2023-10-23T22:33:55.204Z,98326.89
2023-10-23T22:36:22.260Z,98329.27
2023-10-23T22:38:49.619Z,98328.98
2023-10-23T22:41:17.203Z,98334.11
2023-10-23T22:43:44.143Z,98333.12
2023-10-23T22:46:11.186Z,98334.53
2023-10-23T22:48:38.140Z,98337.26
2023-10-23T22:51:05.383Z,98331.45
2023-10-23T22:53:34.102Z,98328.17
2023-10-23T22:56:03.273Z,98329.55
2023-10-23T22:58:32.404Z,98324.77
2023-10-23T23:01:00.510Z,98317.07
2023-10-23T23:03:28.029Z,98309.55
2023-10-23T23:05:58.413Z,98316.61
2023-10-23T23:08:27.299Z,98318.77
2023-10-23T23:10:54.326Z,98315.05
2023-10-23T23:13:21.434Z,98311.80
2023-10-23T23:15:49.329Z,98304.98
2023-10-23T23:18:20.166Z,98305.13
2023-10-23T23:20:48.640Z,98307.45
2023-10-23T23:23:15.475Z,98304.98
2023-10-23T23:25:42.369Z,98303.55
2023-10-23T23:28:09.298Z,98298.55
2023-10-23T23:30:36.269Z,98297.66
2023-10-23T23:33:03.319Z,98295.41
2023-10-23T23:35:30.148Z,98295.32
2023-10-23T23:37:57.004Z,98291.61
2023-10-23T23:40:23.939Z,98286.52
2023-10-23T23:42:50.848Z,98282.73
2023-10-23T23:45:17.819Z,98280.91
2023-10-23T23:47:44.814Z,98276.66
2023-10-23T23:50:11.821Z,98280.98
2023-10-23T23:52:38.693Z,98279.54
2023-10-23T23:55:06.569Z,98280.66
2023-10-23T23:57:35.151Z,98275.25
